sensor_id;sensor_type;location;lat;lon;timestamp;P1;durP1;ratioP1;P2;durP2;ratioP2
1831;SDS011;1680;48.106;11.708;2023-05-16T00:00:50;4.00;;;3.70;;
1831;SDS011;1680;48.106;11.708;2023-05-16T00:03:18;4.23;;;3.80;;
1831;SDS011;1680;48.106;11.708;2023-05-16T00:05:46;4.43;;;4.13;;
1831;SDS011;1680;48.106;11.708;2023-05-16T00:08:23;3.87;;;3.57;;
1831;SDS011;1680;48.106;11.708;2023-05-16T00:10:51;4.37;;;4.07;;
1831;SDS011;1680;48.106;11.708;2023-05-16T00:13:21;5.67;;;4.33;;
1831;SDS011;1680;48.106;11.708;2023-05-16T00:15:49;4.20;;;3.90;;
1831;SDS011;1680;48.106;11.708;2023-05-16T00:18:18;4.47;;;4.07;;
1831;SDS011;1680;48.106;11.708;2023-05-16T00:20:50;4.43;;;4.13;;
1831;SDS011;1680;48.106;11.708;2023-05-16T00:23:20;4.00;;;3.70;;
1831;SDS011;1680;48.106;11.708;2023-05-16T00:25:47;4.47;;;4.07;;
1831;SDS011;1680;48.106;11.708;2023-05-16T00:28:15;4.87;;;4.47;;
1831;SDS011;1680;48.106;11.708;2023-05-16T00:30:43;4.60;;;4.20;;
1831;SDS011;1680;48.106;11.708;2023-05-16T00:33:14;4.33;;;3.93;;
1831;SDS011;1680;48.106;11.708;2023-05-16T00:35:42;4.67;;;4.27;;
1831;SDS011;1680;48.106;11.708;2023-05-16T00:38:10;4.63;;;4.00;;
1831;SDS011;1680;48.106;11.708;2023-05-16T00:40:39;4.30;;;4.00;;
1831;SDS011;1680;48.106;11.708;2023-05-16T00:43:06;4.67;;;4.27;;
1831;SDS011;1680;48.106;11.708;2023-05-16T00:45:33;5.47;;;4.17;;
1831;SDS011;1680;48.106;11.708;2023-05-16T00:48:01;4.27;;;3.90;;
1831;SDS011;1680;48.106;11.708;2023-05-16T00:50:28;4.23;;;3.90;;
1831;SDS011;1680;48.106;11.708;2023-05-16T00:52:55;4.27;;;3.87;;
1831;SDS011;1680;48.106;11.708;2023-05-16T00:55:22;4.53;;;4.23;;
1831;SDS011;1680;48.106;11.708;2023-05-16T00:57:52;4.07;;;3.77;;
1831;SDS011;1680;48.106;11.708;2023-05-16T01:00:19;4.13;;;3.80;;
1831;SDS011;1680;48.106;11.708;2023-05-16T01:02:46;4.67;;;4.27;;
1831;SDS011;1680;48.106;11.708;2023-05-16T01:05:16;3.97;;;3.67;;
1831;SDS011;1680;48.106;11.708;2023-05-16T01:07:43;4.07;;;3.80;;
1831;SDS011;1680;48.106;11.708;2023-05-16T01:10:11;3.77;;;3.57;;
1831;SDS011;1680;48.106;11.708;2023-05-16T01:12:40;4.10;;;3.80;;
1831;SDS011;1680;48.106;11.708;2023-05-16T01:15:16;4.23;;;3.83;;
1831;SDS011;1680;48.106;11.708;2023-05-16T01:17:49;4.53;;;3.97;;
1831;SDS011;1680;48.106;11.708;2023-05-16T01:20:27;4.80;;;3.57;;
1831;SDS011;1680;48.106;11.708;2023-05-16T01:23:03;4.40;;;3.60;;
1831;SDS011;1680;48.106;11.708;2023-05-16T01:25:45;5.00;;;4.07;;
1831;SDS011;1680;48.106;11.708;2023-05-16T01:28:24;4.57;;;4.20;;
1831;SDS011;1680;48.106;11.708;2023-05-16T01:30:53;4.20;;;3.80;;
1831;SDS011;1680;48.106;11.708;2023-05-16T01:33:20;4.27;;;3.93;;
1831;SDS011;1680;48.106;11.708;2023-05-16T01:35:50;4.90;;;4.50;;
1831;SDS011;1680;48.106;11.708;2023-05-16T01:38:24;4.13;;;3.73;;
1831;SDS011;1680;48.106;11.708;2023-05-16T01:40:53;4.60;;;4.10;;
1831;SDS011;1680;48.106;11.708;2023-05-16T01:43:29;5.37;;;4.30;;
1831;SDS011;1680;48.106;11.708;2023-05-16T01:46:02;4.80;;;4.40;;
1831;SDS011;1680;48.106;11.708;2023-05-16T01:48:36;4.70;;;4.00;;
1831;SDS011;1680;48.106;11.708;2023-05-16T01:51:10;4.77;;;4.37;;
1831;SDS011;1680;48.106;11.708;2023-05-16T01:53:38;5.00;;;4.60;;
1831;SDS011;1680;48.106;11.708;2023-05-16T01:56:10;4.30;;;4.00;;
1831;SDS011;1680;48.106;11.708;2023-05-16T01:58:43;4.40;;;4.10;;
1831;SDS011;1680;48.106;11.708;2023-05-16T02:01:12;5.00;;;4.60;;
1831;SDS011;1680;48.106;11.708;2023-05-16T02:03:39;4.80;;;4.50;;
1831;SDS011;1680;48.106;11.708;2023-05-16T02:06:06;4.10;;;3.83;;
1831;SDS011;1680;48.106;11.708;2023-05-16T02:08:34;4.80;;;4.40;;
1831;SDS011;1680;48.106;11.708;2023-05-16T02:11:01;5.17;;;4.67;;
1831;SDS011;1680;48.106;11.708;2023-05-16T02:13:28;4.70;;;4.40;;
1831;SDS011;1680;48.106;11.708;2023-05-16T02:15:57;4.43;;;4.03;;
1831;SDS011;1680;48.106;11.708;2023-05-16T02:18:24;4.70;;;4.30;;
1831;SDS011;1680;48.106;11.708;2023-05-16T02:20:52;5.07;;;4.60;;
1831;SDS011;1680;48.106;11.708;2023-05-16T02:23:19;5.33;;;4.40;;
1831;SDS011;1680;48.106;11.708;2023-05-16T02:25:47;4.73;;;4.33;;
1831;SDS011;1680;48.106;11.708;2023-05-16T02:28:14;4.70;;;4.37;;
1831;SDS011;1680;48.106;11.708;2023-05-16T02:30:41;4.87;;;4.43;;
1831;SDS011;1680;48.106;11.708;2023-05-16T02:33:10;4.73;;;4.33;;
1831;SDS011;1680;48.106;11.708;2023-05-16T02:35:37;4.30;;;4.00;;
1831;SDS011;1680;48.106;11.708;2023-05-16T02:38:04;5.60;;;4.30;;
1831;SDS011;1680;48.106;11.708;2023-05-16T02:42:59;4.63;;;4.20;;
1831;SDS011;1680;48.106;11.708;2023-05-16T02:45:26;4.90;;;4.50;;
1831;SDS011;1680;48.106;11.708;2023-05-16T02:47:53;4.97;;;4.60;;
1831;SDS011;1680;48.106;11.708;2023-05-16T02:50:22;5.37;;;4.97;;
1831;SDS011;1680;48.106;11.708;2023-05-16T02:52:49;5.20;;;4.80;;
1831;SDS011;1680;48.106;11.708;2023-05-16T02:55:17;5.30;;;4.80;;
1831;SDS011;1680;48.106;11.708;2023-05-16T02:57:44;6.40;;;4.67;;
1831;SDS011;1680;48.106;11.708;2023-05-16T03:00:11;5.63;;;5.13;;
1831;SDS011;1680;48.106;11.708;2023-05-16T03:02:39;5.40;;;4.90;;
1831;SDS011;1680;48.106;11.708;2023-05-16T03:05:07;5.30;;;4.80;;
1831;SDS011;1680;48.106;11.708;2023-05-16T03:07:36;4.83;;;4.53;;
1831;SDS011;1680;48.106;11.708;2023-05-16T03:10:04;5.23;;;4.83;;
1831;SDS011;1680;48.106;11.708;2023-05-16T03:12:33;5.20;;;4.70;;
1831;SDS011;1680;48.106;11.708;2023-05-16T03:15:00;5.13;;;4.73;;
1831;SDS011;1680;48.106;11.708;2023-05-16T03:17:28;5.17;;;4.70;;
1831;SDS011;1680;48.106;11.708;2023-05-16T03:19:55;5.03;;;4.60;;
1831;SDS011;1680;48.106;11.708;2023-05-16T03:22:22;5.30;;;4.80;;
1831;SDS011;1680;48.106;11.708;2023-05-16T03:24:51;5.03;;;4.63;;
1831;SDS011;1680;48.106;11.708;2023-05-16T03:27:18;5.70;;;5.27;;
1831;SDS011;1680;48.106;11.708;2023-05-16T03:29:45;4.90;;;4.60;;
1831;SDS011;1680;48.106;11.708;2023-05-16T03:32:14;4.87;;;4.47;;
1831;SDS011;1680;48.106;11.708;2023-05-16T03:34:41;5.07;;;4.67;;
1831;SDS011;1680;48.106;11.708;2023-05-16T03:37:08;4.90;;;4.47;;
1831;SDS011;1680;48.106;11.708;2023-05-16T03:39:38;5.23;;;4.83;;
1831;SDS011;1680;48.106;11.708;2023-05-16T03:42:07;5.17;;;4.60;;
1831;SDS011;1680;48.106;11.708;2023-05-16T03:44:34;5.70;;;4.80;;
1831;SDS011;1680;48.106;11.708;2023-05-16T03:47:01;5.07;;;4.67;;
1831;SDS011;1680;48.106;11.708;2023-05-16T03:49:29;4.90;;;4.50;;
1831;SDS011;1680;48.106;11.708;2023-05-16T03:51:56;5.93;;;5.43;;
1831;SDS011;1680;48.106;11.708;2023-05-16T03:54:23;5.90;;;5.27;;
1831;SDS011;1680;48.106;11.708;2023-05-16T03:56:51;5.10;;;4.70;;
1831;SDS011;1680;48.106;11.708;2023-05-16T03:59:19;5.90;;;5.30;;
1831;SDS011;1680;48.106;11.708;2023-05-16T04:01:46;5.43;;;4.93;;
1831;SDS011;1680;48.106;11.708;2023-05-16T04:04:15;5.03;;;4.63;;
1831;SDS011;1680;48.106;11.708;2023-05-16T04:06:42;5.37;;;4.87;;
1831;SDS011;1680;48.106;11.708;2023-05-16T04:09:09;5.80;;;5.30;;
1831;SDS011;1680;48.106;11.708;2023-05-16T04:11:36;5.40;;;5.00;;
1831;SDS011;1680;48.106;11.708;2023-05-16T04:14:03;5.97;;;5.47;;
1831;SDS011;1680;48.106;11.708;2023-05-16T04:16:32;6.10;;;5.50;;
1831;SDS011;1680;48.106;11.708;2023-05-16T04:18:59;5.10;;;4.60;;
1831;SDS011;1680;48.106;11.708;2023-05-16T04:21:28;5.63;;;5.13;;
1831;SDS011;1680;48.106;11.708;2023-05-16T04:23:55;5.07;;;4.67;;
1831;SDS011;1680;48.106;11.708;2023-05-16T04:26:23;7.10;;;6.40;;
1831;SDS011;1680;48.106;11.708;2023-05-16T04:28:51;5.50;;;5.00;;
1831;SDS011;1680;48.106;11.708;2023-05-16T04:31:19;6.93;;;6.33;;
1831;SDS011;1680;48.106;11.708;2023-05-16T04:33:48;6.50;;;5.97;;
1831;SDS011;1680;48.106;11.708;2023-05-16T04:36:16;5.67;;;5.20;;
1831;SDS011;1680;48.106;11.708;2023-05-16T04:38:43;5.97;;;5.47;;
1831;SDS011;1680;48.106;11.708;2023-05-16T04:41:10;6.60;;;5.70;;
1831;SDS011;1680;48.106;11.708;2023-05-16T04:43:38;6.13;;;5.63;;
1831;SDS011;1680;48.106;11.708;2023-05-16T04:46:06;6.57;;;5.93;;
1831;SDS011;1680;48.106;11.708;2023-05-16T04:48:34;6.80;;;6.20;;
1831;SDS011;1680;48.106;11.708;2023-05-16T04:51:02;6.77;;;6.10;;
1831;SDS011;1680;48.106;11.708;2023-05-16T04:53:30;8.10;;;7.40;;
1831;SDS011;1680;48.106;11.708;2023-05-16T04:55:57;6.63;;;6.03;;
1831;SDS011;1680;48.106;11.708;2023-05-16T04:58:25;7.70;;;6.93;;
1831;SDS011;1680;48.106;11.708;2023-05-16T05:00:52;8.90;;;7.20;;
1831;SDS011;1680;48.106;11.708;2023-05-16T05:03:21;7.43;;;6.83;;
1831;SDS011;1680;48.106;11.708;2023-05-16T05:05:48;7.97;;;7.10;;
1831;SDS011;1680;48.106;11.708;2023-05-16T05:08:17;7.67;;;7.07;;
1831;SDS011;1680;48.106;11.708;2023-05-16T05:10:45;8.00;;;7.30;;
1831;SDS011;1680;48.106;11.708;2023-05-16T05:13:12;7.43;;;6.83;;
1831;SDS011;1680;48.106;11.708;2023-05-16T05:15:39;8.93;;;8.00;;
1831;SDS011;1680;48.106;11.708;2023-05-16T05:18:06;7.83;;;7.23;;
1831;SDS011;1680;48.106;11.708;2023-05-16T05:20:34;7.83;;;6.90;;
1831;SDS011;1680;48.106;11.708;2023-05-16T05:23:02;8.80;;;8.00;;
1831;SDS011;1680;48.106;11.708;2023-05-16T05:25:30;10.67;;;8.03;;
1831;SDS011;1680;48.106;11.708;2023-05-16T05:27:57;11.83;;;9.07;;
1831;SDS011;1680;48.106;11.708;2023-05-16T05:30:25;9.23;;;8.33;;
1831;SDS011;1680;48.106;11.708;2023-05-16T05:32:53;9.80;;;8.80;;
1831;SDS011;1680;48.106;11.708;2023-05-16T05:35:20;8.50;;;7.80;;
1831;SDS011;1680;48.106;11.708;2023-05-16T05:37:48;9.67;;;8.77;;
1831;SDS011;1680;48.106;11.708;2023-05-16T05:40:15;9.43;;;8.53;;
1831;SDS011;1680;48.106;11.708;2023-05-16T05:42:43;9.27;;;8.47;;
1831;SDS011;1680;48.106;11.708;2023-05-16T05:45:11;10.37;;;9.37;;
1831;SDS011;1680;48.106;11.708;2023-05-16T05:47:38;9.27;;;8.37;;
1831;SDS011;1680;48.106;11.708;2023-05-16T05:50:06;10.87;;;9.87;;
1831;SDS011;1680;48.106;11.708;2023-05-16T05:52:35;12.17;;;10.10;;
1831;SDS011;1680;48.106;11.708;2023-05-16T05:55:02;12.50;;;11.20;;
1831;SDS011;1680;48.106;11.708;2023-05-16T05:57:30;11.43;;;10.23;;
1831;SDS011;1680;48.106;11.708;2023-05-16T05:59:59;11.20;;;10.03;;
1831;SDS011;1680;48.106;11.708;2023-05-16T06:02:26;12.60;;;11.40;;
1831;SDS011;1680;48.106;11.708;2023-05-16T06:04:54;14.30;;;10.83;;
1831;SDS011;1680;48.106;11.708;2023-05-16T06:07:21;11.63;;;10.47;;
1831;SDS011;1680;48.106;11.708;2023-05-16T06:09:48;11.20;;;10.10;;
1831;SDS011;1680;48.106;11.708;2023-05-16T06:12:16;10.70;;;9.60;;
1831;SDS011;1680;48.106;11.708;2023-05-16T06:14:43;11.23;;;10.13;;
1831;SDS011;1680;48.106;11.708;2023-05-16T06:17:11;11.63;;;10.43;;
1831;SDS011;1680;48.106;11.708;2023-05-16T06:19:39;11.53;;;10.43;;
1831;SDS011;1680;48.106;11.708;2023-05-16T06:22:06;11.70;;;10.50;;
1831;SDS011;1680;48.106;11.708;2023-05-16T06:24:33;11.13;;;10.13;;
1831;SDS011;1680;48.106;11.708;2023-05-16T06:27:00;12.63;;;11.40;;
1831;SDS011;1680;48.106;11.708;2023-05-16T06:29:27;13.40;;;10.60;;
1831;SDS011;1680;48.106;11.708;2023-05-16T06:31:55;12.07;;;10.90;;
1831;SDS011;1680;48.106;11.708;2023-05-16T06:34:23;13.20;;;9.60;;
1831;SDS011;1680;48.106;11.708;2023-05-16T06:36:52;10.53;;;9.63;;
1831;SDS011;1680;48.106;11.708;2023-05-16T06:39:19;12.43;;;11.30;;
1831;SDS011;1680;48.106;11.708;2023-05-16T06:41:46;12.60;;;11.30;;
1831;SDS011;1680;48.106;11.708;2023-05-16T06:44:14;11.67;;;10.57;;
1831;SDS011;1680;48.106;11.708;2023-05-16T06:46:41;12.63;;;11.50;;
1831;SDS011;1680;48.106;11.708;2023-05-16T06:49:08;11.93;;;10.83;;
1831;SDS011;1680;48.106;11.708;2023-05-16T06:51:37;12.87;;;11.57;;
1831;SDS011;1680;48.106;11.708;2023-05-16T06:54:04;11.40;;;10.30;;
1831;SDS011;1680;48.106;11.708;2023-05-16T06:56:32;13.10;;;11.70;;
1831;SDS011;1680;48.106;11.708;2023-05-16T06:58:59;12.53;;;11.20;;
1831;SDS011;1680;48.106;11.708;2023-05-16T07:01:26;14.50;;;11.90;;
1831;SDS011;1680;48.106;11.708;2023-05-16T07:03:53;12.70;;;11.50;;
1831;SDS011;1680;48.106;11.708;2023-05-16T07:06:21;12.00;;;10.80;;
1831;SDS011;1680;48.106;11.708;2023-05-16T07:08:49;14.37;;;12.83;;
1831;SDS011;1680;48.106;11.708;2023-05-16T07:11:17;11.07;;;10.07;;
1831;SDS011;1680;48.106;11.708;2023-05-16T07:13:44;12.60;;;11.30;;
1831;SDS011;1680;48.106;11.708;2023-05-16T07:16:11;13.63;;;12.33;;
1831;SDS011;1680;48.106;11.708;2023-05-16T07:18:39;11.67;;;10.60;;
1831;SDS011;1680;48.106;11.708;2023-05-16T07:21:06;13.10;;;11.80;;
1831;SDS011;1680;48.106;11.708;2023-05-16T07:23:34;12.50;;;11.30;;
1831;SDS011;1680;48.106;11.708;2023-05-16T07:26:02;13.00;;;11.70;;
1831;SDS011;1680;48.106;11.708;2023-05-16T07:28:29;12.07;;;10.93;;
1831;SDS011;1680;48.106;11.708;2023-05-16T07:30:57;11.93;;;10.70;;
1831;SDS011;1680;48.106;11.708;2023-05-16T07:33:24;12.80;;;11.60;;
1831;SDS011;1680;48.106;11.708;2023-05-16T07:35:51;11.97;;;10.80;;
1831;SDS011;1680;48.106;11.708;2023-05-16T07:38:19;11.17;;;10.07;;
1831;SDS011;1680;48.106;11.708;2023-05-16T07:40:46;11.93;;;10.70;;
1831;SDS011;1680;48.106;11.708;2023-05-16T07:43:15;11.30;;;10.30;;
1831;SDS011;1680;48.106;11.708;2023-05-16T07:45:42;11.20;;;10.17;;
1831;SDS011;1680;48.106;11.708;2023-05-16T07:48:09;11.67;;;10.20;;
1831;SDS011;1680;48.106;11.708;2023-05-16T07:50:37;12.20;;;11.00;;
1831;SDS011;1680;48.106;11.708;2023-05-16T07:53:04;13.47;;;12.27;;
1831;SDS011;1680;48.106;11.708;2023-05-16T07:55:32;13.07;;;11.80;;
1831;SDS011;1680;48.106;11.708;2023-05-16T07:57:59;12.30;;;11.20;;
1831;SDS011;1680;48.106;11.708;2023-05-16T08:00:27;11.63;;;10.53;;
1831;SDS011;1680;48.106;11.708;2023-05-16T08:02:55;11.30;;;10.30;;
1831;SDS011;1680;48.106;11.708;2023-05-16T08:05:23;14.30;;;13.00;;
1831;SDS011;1680;48.106;11.708;2023-05-16T08:07:50;12.77;;;11.47;;
1831;SDS011;1680;48.106;11.708;2023-05-16T08:10:17;11.80;;;10.70;;
1831;SDS011;1680;48.106;11.708;2023-05-16T08:12:44;13.47;;;12.03;;
1831;SDS011;1680;48.106;11.708;2023-05-16T08:15:12;14.20;;;12.70;;
1831;SDS011;1680;48.106;11.708;2023-05-16T08:17:41;13.27;;;11.97;;
1831;SDS011;1680;48.106;11.708;2023-05-16T08:20:08;13.17;;;11.97;;
1831;SDS011;1680;48.106;11.708;2023-05-16T08:22:36;13.67;;;12.23;;
1831;SDS011;1680;48.106;11.708;2023-05-16T08:25:03;13.30;;;12.00;;
1831;SDS011;1680;48.106;11.708;2023-05-16T08:27:32;13.50;;;12.30;;
1831;SDS011;1680;48.106;11.708;2023-05-16T08:29:59;14.20;;;12.80;;
1831;SDS011;1680;48.106;11.708;2023-05-16T08:32:27;13.80;;;12.50;;
1831;SDS011;1680;48.106;11.708;2023-05-16T08:34:55;14.00;;;12.70;;
1831;SDS011;1680;48.106;11.708;2023-05-16T08:37:22;14.50;;;13.00;;
1831;SDS011;1680;48.106;11.708;2023-05-16T08:39:49;12.97;;;11.80;;
1831;SDS011;1680;48.106;11.708;2023-05-16T08:42:16;14.97;;;13.47;;
1831;SDS011;1680;48.106;11.708;2023-05-16T08:44:44;13.23;;;11.93;;
1831;SDS011;1680;48.106;11.708;2023-05-16T08:47:12;16.67;;;14.70;;
1831;SDS011;1680;48.106;11.708;2023-05-16T08:49:46;15.67;;;14.17;;
1831;SDS011;1680;48.106;11.708;2023-05-16T08:52:16;14.23;;;12.70;;
1831;SDS011;1680;48.106;11.708;2023-05-16T08:54:46;14.30;;;12.90;;
1831;SDS011;1680;48.106;11.708;2023-05-16T08:57:15;15.47;;;13.53;;
1831;SDS011;1680;48.106;11.708;2023-05-16T08:59:43;14.70;;;13.33;;
1831;SDS011;1680;48.106;11.708;2023-05-16T09:02:11;14.60;;;13.20;;
1831;SDS011;1680;48.106;11.708;2023-05-16T09:04:38;18.20;;;16.40;;
1831;SDS011;1680;48.106;11.708;2023-05-16T09:07:07;15.87;;;14.40;;
1831;SDS011;1680;48.106;11.708;2023-05-16T09:09:35;14.40;;;13.03;;
1831;SDS011;1680;48.106;11.708;2023-05-16T09:12:03;14.10;;;12.80;;
1831;SDS011;1680;48.106;11.708;2023-05-16T09:14:30;16.27;;;14.70;;
1831;SDS011;1680;48.106;11.708;2023-05-16T09:17:03;16.67;;;15.10;;
1831;SDS011;1680;48.106;11.708;2023-05-16T09:19:33;16.10;;;14.60;;
1831;SDS011;1680;48.106;11.708;2023-05-16T09:22:04;15.77;;;14.07;;
1831;SDS011;1680;48.106;11.708;2023-05-16T09:24:35;13.50;;;12.30;;
1831;SDS011;1680;48.106;11.708;2023-05-16T09:27:08;14.70;;;13.30;;
1831;SDS011;1680;48.106;11.708;2023-05-16T09:29:38;13.60;;;12.40;;
1831;SDS011;1680;48.106;11.708;2023-05-16T09:32:10;12.93;;;11.67;;
1831;SDS011;1680;48.106;11.708;2023-05-16T09:34:42;13.90;;;12.67;;
1831;SDS011;1680;48.106;11.708;2023-05-16T09:37:10;14.90;;;13.60;;
1831;SDS011;1680;48.106;11.708;2023-05-16T09:39:39;14.97;;;13.50;;
1831;SDS011;1680;48.106;11.708;2023-05-16T09:42:12;14.97;;;13.57;;
1831;SDS011;1680;48.106;11.708;2023-05-16T09:44:40;15.20;;;13.60;;
1831;SDS011;1680;48.106;11.708;2023-05-16T09:47:13;14.17;;;12.77;;
1831;SDS011;1680;48.106;11.708;2023-05-16T09:49:41;15.53;;;14.03;;
1831;SDS011;1680;48.106;11.708;2023-05-16T09:52:09;16.13;;;14.73;;
1831;SDS011;1680;48.106;11.708;2023-05-16T09:54:36;13.57;;;12.37;;
1831;SDS011;1680;48.106;11.708;2023-05-16T09:57:05;14.30;;;13.07;;
1831;SDS011;1680;48.106;11.708;2023-05-16T09:59:34;14.60;;;13.30;;
1831;SDS011;1680;48.106;11.708;2023-05-16T10:02:02;14.37;;;13.07;;
1831;SDS011;1680;48.106;11.708;2023-05-16T10:04:32;22.20;;;15.70;;
1831;SDS011;1680;48.106;11.708;2023-05-16T10:07:00;16.33;;;13.70;;
1831;SDS011;1680;48.106;11.708;2023-05-16T10:09:31;18.87;;;15.30;;
1831;SDS011;1680;48.106;11.708;2023-05-16T10:11:59;15.10;;;13.00;;
1831;SDS011;1680;48.106;11.708;2023-05-16T10:14:31;21.70;;;15.23;;
1831;SDS011;1680;48.106;11.708;2023-05-16T10:17:01;21.03;;;15.83;;
1831;SDS011;1680;48.106;11.708;2023-05-16T10:19:31;15.13;;;13.83;;
1831;SDS011;1680;48.106;11.708;2023-05-16T10:22:01;15.83;;;14.13;;
1831;SDS011;1680;48.106;11.708;2023-05-16T10:24:34;17.10;;;14.30;;
1831;SDS011;1680;48.106;11.708;2023-05-16T10:27:08;16.90;;;15.20;;
1831;SDS011;1680;48.106;11.708;2023-05-16T10:29:37;15.53;;;14.20;;
1831;SDS011;1680;48.106;11.708;2023-05-16T10:32:06;23.43;;;15.97;;
1831;SDS011;1680;48.106;11.708;2023-05-16T10:34:34;15.03;;;13.63;;
1831;SDS011;1680;48.106;11.708;2023-05-16T10:37:02;18.53;;;16.87;;
1831;SDS011;1680;48.106;11.708;2023-05-16T10:39:31;17.37;;;15.67;;
1831;SDS011;1680;48.106;11.708;2023-05-16T10:41:58;18.10;;;15.70;;
1831;SDS011;1680;48.106;11.708;2023-05-16T10:44:27;15.73;;;14.23;;
1831;SDS011;1680;48.106;11.708;2023-05-16T10:46:59;16.70;;;14.57;;
1831;SDS011;1680;48.106;11.708;2023-05-16T10:49:29;15.37;;;13.87;;
1831;SDS011;1680;48.106;11.708;2023-05-16T10:52:03;17.00;;;15.40;;
1831;SDS011;1680;48.106;11.708;2023-05-16T10:54:35;16.33;;;14.90;;
1831;SDS011;1680;48.106;11.708;2023-05-16T10:57:05;16.20;;;14.70;;
1831;SDS011;1680;48.106;11.708;2023-05-16T10:59:39;14.40;;;13.00;;
1831;SDS011;1680;48.106;11.708;2023-05-16T11:02:21;17.23;;;15.73;;
1831;SDS011;1680;48.106;11.708;2023-05-16T11:04:51;16.40;;;14.90;;
1831;SDS011;1680;48.106;11.708;2023-05-16T11:07:19;17.03;;;15.50;;
1831;SDS011;1680;48.106;11.708;2023-05-16T11:10:06;18.67;;;16.90;;
1831;SDS011;1680;48.106;11.708;2023-05-16T11:12:44;17.77;;;16.10;;
1831;SDS011;1680;48.106;11.708;2023-05-16T11:15:20;18.57;;;16.83;;
1831;SDS011;1680;48.106;11.708;2023-05-16T11:17:54;19.33;;;17.37;;
1831;SDS011;1680;48.106;11.708;2023-05-16T11:20:30;18.07;;;16.27;;
1831;SDS011;1680;48.106;11.708;2023-05-16T11:25:46;21.83;;;17.80;;
1831;SDS011;1680;48.106;11.708;2023-05-16T11:28:15;16.90;;;15.40;;
1831;SDS011;1680;48.106;11.708;2023-05-16T11:30:43;18.17;;;16.57;;
1831;SDS011;1680;48.106;11.708;2023-05-16T11:33:14;17.63;;;16.03;;
1831;SDS011;1680;48.106;11.708;2023-05-16T11:35:42;18.73;;;16.93;;
1831;SDS011;1680;48.106;11.708;2023-05-16T11:38:12;17.83;;;16.17;;
1831;SDS011;1680;48.106;11.708;2023-05-16T11:40:41;18.27;;;16.67;;
1831;SDS011;1680;48.106;11.708;2023-05-16T11:43:09;17.23;;;15.73;;
1831;SDS011;1680;48.106;11.708;2023-05-16T11:45:37;17.77;;;16.17;;
1831;SDS011;1680;48.106;11.708;2023-05-16T11:48:05;18.93;;;17.13;;
1831;SDS011;1680;48.106;11.708;2023-05-16T11:50:34;17.07;;;15.57;;
1831;SDS011;1680;48.106;11.708;2023-05-16T11:53:01;16.80;;;15.30;;
1831;SDS011;1680;48.106;11.708;2023-05-16T11:55:29;17.33;;;15.83;;
1831;SDS011;1680;48.106;11.708;2023-05-16T11:57:58;15.20;;;13.80;;
1831;SDS011;1680;48.106;11.708;2023-05-16T12:00:26;15.00;;;13.60;;
1831;SDS011;1680;48.106;11.708;2023-05-16T12:02:53;15.00;;;13.80;;
1831;SDS011;1680;48.106;11.708;2023-05-16T12:05:26;15.50;;;14.10;;
1831;SDS011;1680;48.106;11.708;2023-05-16T12:07:56;14.20;;;13.00;;
1831;SDS011;1680;48.106;11.708;2023-05-16T12:10:24;14.93;;;13.43;;
1831;SDS011;1680;48.106;11.708;2023-05-16T12:12:52;13.43;;;12.33;;
1831;SDS011;1680;48.106;11.708;2023-05-16T12:15:20;13.60;;;12.30;;
1831;SDS011;1680;48.106;11.708;2023-05-16T12:17:48;13.47;;;12.13;;
1831;SDS011;1680;48.106;11.708;2023-05-16T12:20:16;13.23;;;12.03;;
1831;SDS011;1680;48.106;11.708;2023-05-16T12:22:44;13.60;;;12.40;;
1831;SDS011;1680;48.106;11.708;2023-05-16T12:25:21;15.10;;;13.33;;
1831;SDS011;1680;48.106;11.708;2023-05-16T12:27:51;14.47;;;13.17;;
1831;SDS011;1680;48.106;11.708;2023-05-16T12:30:20;13.30;;;12.13;;
1831;SDS011;1680;48.106;11.708;2023-05-16T12:32:51;13.77;;;12.60;;
1831;SDS011;1680;48.106;11.708;2023-05-16T12:35:19;14.03;;;12.83;;
1831;SDS011;1680;48.106;11.708;2023-05-16T12:37:47;13.70;;;12.40;;
1831;SDS011;1680;48.106;11.708;2023-05-16T12:40:16;14.90;;;13.50;;
1831;SDS011;1680;48.106;11.708;2023-05-16T12:42:46;14.77;;;13.50;;
1831;SDS011;1680;48.106;11.708;2023-05-16T12:45:16;15.57;;;14.07;;
1831;SDS011;1680;48.106;11.708;2023-05-16T12:47:43;14.57;;;13.03;;
1831;SDS011;1680;48.106;11.708;2023-05-16T12:50:11;14.50;;;13.20;;
1831;SDS011;1680;48.106;11.708;2023-05-16T12:52:48;14.07;;;12.87;;
1831;SDS011;1680;48.106;11.708;2023-05-16T12:55:16;15.73;;;14.07;;
1831;SDS011;1680;48.106;11.708;2023-05-16T12:57:45;16.40;;;14.90;;
1831;SDS011;1680;48.106;11.708;2023-05-16T13:00:15;17.20;;;15.60;;
1831;SDS011;1680;48.106;11.708;2023-05-16T13:02:44;16.30;;;14.70;;
1831;SDS011;1680;48.106;11.708;2023-05-16T13:05:11;16.00;;;14.47;;
1831;SDS011;1680;48.106;11.708;2023-05-16T13:07:38;18.03;;;16.33;;
1831;SDS011;1680;48.106;11.708;2023-05-16T13:10:06;19.20;;;17.20;;
1831;SDS011;1680;48.106;11.708;2023-05-16T13:12:35;18.73;;;16.93;;
1831;SDS011;1680;48.106;11.708;2023-05-16T13:15:05;18.30;;;16.80;;
1831;SDS011;1680;48.106;11.708;2023-05-16T13:17:33;19.80;;;18.00;;
1831;SDS011;1680;48.106;11.708;2023-05-16T13:20:00;17.77;;;15.90;;
1831;SDS011;1680;48.106;11.708;2023-05-16T13:22:32;17.17;;;15.57;;
1831;SDS011;1680;48.106;11.708;2023-05-16T13:24:59;18.83;;;17.00;;
1831;SDS011;1680;48.106;11.708;2023-05-16T13:27:28;20.10;;;18.20;;
1831;SDS011;1680;48.106;11.708;2023-05-16T13:29:55;20.40;;;18.47;;
1831;SDS011;1680;48.106;11.708;2023-05-16T13:32:24;19.23;;;17.53;;
1831;SDS011;1680;48.106;11.708;2023-05-16T13:34:52;17.50;;;16.00;;
1831;SDS011;1680;48.106;11.708;2023-05-16T13:37:19;16.50;;;15.00;;
1831;SDS011;1680;48.106;11.708;2023-05-16T13:39:48;16.17;;;14.77;;
1831;SDS011;1680;48.106;11.708;2023-05-16T13:42:15;16.23;;;14.60;;
1831;SDS011;1680;48.106;11.708;2023-05-16T13:44:43;17.43;;;15.93;;
1831;SDS011;1680;48.106;11.708;2023-05-16T13:47:10;17.17;;;15.57;;
1831;SDS011;1680;48.106;11.708;2023-05-16T13:49:39;18.90;;;17.10;;
1831;SDS011;1680;48.106;11.708;2023-05-16T13:52:07;11.00;;;9.90;;
1831;SDS011;1680;48.106;11.708;2023-05-16T13:54:34;9.13;;;8.30;;
1831;SDS011;1680;48.106;11.708;2023-05-16T13:57:01;8.00;;;7.20;;
1831;SDS011;1680;48.106;11.708;2023-05-16T13:59:28;10.20;;;7.57;;
1831;SDS011;1680;48.106;11.708;2023-05-16T14:01:56;8.20;;;7.40;;
1831;SDS011;1680;48.106;11.708;2023-05-16T14:04:23;9.40;;;6.90;;
1831;SDS011;1680;48.106;11.708;2023-05-16T14:06:52;9.90;;;7.27;;
1831;SDS011;1680;48.106;11.708;2023-05-16T14:09:20;8.77;;;7.80;;
1831;SDS011;1680;48.106;11.708;2023-05-16T14:11:48;8.60;;;7.80;;
1831;SDS011;1680;48.106;11.708;2023-05-16T14:14:15;9.87;;;8.97;;
1831;SDS011;1680;48.106;11.708;2023-05-16T14:16:42;9.23;;;8.43;;
1831;SDS011;1680;48.106;11.708;2023-05-16T14:19:10;15.83;;;9.10;;
1831;SDS011;1680;48.106;11.708;2023-05-16T14:21:38;15.53;;;12.60;;
1831;SDS011;1680;48.106;11.708;2023-05-16T14:24:09;16.43;;;11.20;;
1831;SDS011;1680;48.106;11.708;2023-05-16T14:26:36;12.50;;;10.27;;
1831;SDS011;1680;48.106;11.708;2023-05-16T14:29:03;11.33;;;10.13;;
1831;SDS011;1680;48.106;11.708;2023-05-16T14:31:31;31.07;;;20.00;;
1831;SDS011;1680;48.106;11.708;2023-05-16T14:34:00;14.33;;;12.37;;
1831;SDS011;1680;48.106;11.708;2023-05-16T14:36:28;12.97;;;11.67;;
1831;SDS011;1680;48.106;11.708;2023-05-16T14:38:56;11.53;;;10.40;;
1831;SDS011;1680;48.106;11.708;2023-05-16T14:41:24;10.53;;;9.63;;
1831;SDS011;1680;48.106;11.708;2023-05-16T14:43:52;11.60;;;10.60;;
1831;SDS011;1680;48.106;11.708;2023-05-16T14:46:19;11.60;;;10.30;;
1831;SDS011;1680;48.106;11.708;2023-05-16T14:48:46;11.10;;;10.07;;
1831;SDS011;1680;48.106;11.708;2023-05-16T14:51:13;11.83;;;10.10;;
1831;SDS011;1680;48.106;11.708;2023-05-16T14:53:41;11.87;;;10.70;;
1831;SDS011;1680;48.106;11.708;2023-05-16T14:56:08;10.50;;;9.50;;
1831;SDS011;1680;48.106;11.708;2023-05-16T14:58:37;11.83;;;10.73;;